createdAt,value
2019-02-21T00:01:32.940Z,23.26
2019-02-21T00:04:09.941Z,23.21
2019-02-21T00:06:44.230Z,23.20
2019-02-21T00:09:18.417Z,23.11
2019-02-21T00:11:52.840Z,23.18
2019-02-21T00:14:27.145Z,23.22
2019-02-21T00:17:01.443Z,23.25
2019-02-21T00:19:35.729Z,23.16
2019-02-21T00:22:10.236Z,23.13
2019-02-21T00:24:44.711Z,23.15
2019-02-21T00:27:19.269Z,23.12
2019-02-21T00:29:53.544Z,23.17
2019-02-21T00:32:28.016Z,23.11
2019-02-21T00:35:02.281Z,23.11
2019-02-21T00:37:36.360Z,23.04
2019-02-21T00:40:10.823Z,23.04
2019-02-21T00:42:45.088Z,23.01
2019-02-21T00:45:19.415Z,22.95
2019-02-21T00:47:53.577Z,23.06
2019-02-21T00:50:27.879Z,23.19
2019-02-21T00:53:02.124Z,23.09
2019-02-21T00:55:36.509Z,23.19
2019-02-21T00:58:10.934Z,23.13
2019-02-21T01:00:46.789Z,23.05
2019-02-21T01:03:22.349Z,23.12
2019-02-21T01:05:56.467Z,23.00
2019-02-21T01:08:30.594Z,23.03
2019-02-21T01:11:06.217Z,23.07
2019-02-21T01:13:40.651Z,23.11
2019-02-21T01:16:15.219Z,23.05
2019-02-21T01:18:49.339Z,23.04
2019-02-21T01:21:24.651Z,23.00
2019-02-21T01:23:58.907Z,23.06
2019-02-21T01:26:32.829Z,23.10
2019-02-21T01:29:07.265Z,23.12
2019-02-21T01:31:41.789Z,23.09
2019-02-21T01:34:15.919Z,23.09
2019-02-21T01:36:50.125Z,23.14
2019-02-21T01:39:24.236Z,23.13
2019-02-21T01:41:58.265Z,23.07
2019-02-21T01:44:33.501Z,22.87
2019-02-21T01:47:07.526Z,22.86
2019-02-21T01:49:41.640Z,22.87
2019-02-21T01:52:15.894Z,22.85
2019-02-21T01:54:50.077Z,22.82
2019-02-21T01:57:24.401Z,22.77
2019-02-21T01:59:58.295Z,22.80
2019-02-21T02:02:33.149Z,22.81
2019-02-21T02:05:07.908Z,22.75
2019-02-21T02:07:42.685Z,22.77
2019-02-21T02:10:16.989Z,22.65
2019-02-21T02:12:52.399Z,22.62
2019-02-21T02:15:26.626Z,22.64
2019-02-21T02:18:00.758Z,22.58
2019-02-21T02:20:34.988Z,22.49
2019-02-21T02:23:09.185Z,22.60
2019-02-21T02:25:43.533Z,22.52
2019-02-21T02:28:18.826Z,22.60
2019-02-21T02:30:53.281Z,22.58
2019-02-21T02:33:27.546Z,22.52
2019-02-21T02:36:01.459Z,22.52
2019-02-21T02:38:35.712Z,22.59
2019-02-21T02:41:10.018Z,22.64
2019-02-21T02:43:44.220Z,22.61
2019-02-21T02:46:19.355Z,22.65
2019-02-21T02:48:54.648Z,22.60
2019-02-21T02:51:28.895Z,22.64
2019-02-21T02:54:03.152Z,22.64
2019-02-21T02:56:37.434Z,22.58
2019-02-21T02:59:11.889Z,22.61
2019-02-21T03:01:46.217Z,22.64
2019-02-21T03:04:20.729Z,22.87
2019-02-21T03:06:56.588Z,23.01
2019-02-21T03:09:30.858Z,23.02
2019-02-21T03:12:05.265Z,23.05
2019-02-21T03:14:39.682Z,23.06
2019-02-21T03:17:14.099Z,23.10
2019-02-21T03:19:48.262Z,23.09
2019-02-21T03:22:22.592Z,23.19
2019-02-21T03:24:57.845Z,23.15
2019-02-21T03:27:32.077Z,23.13
2019-02-21T03:30:06.424Z,23.12
2019-02-21T03:32:40.810Z,23.07
2019-02-21T03:35:15.051Z,23.05
2019-02-21T03:37:49.794Z,23.09
2019-02-21T03:40:23.898Z,23.06
2019-02-21T03:42:58.450Z,23.09
2019-02-21T03:45:32.791Z,23.09
2019-02-21T03:48:07.319Z,23.15
2019-02-21T03:50:43.008Z,23.12
2019-02-21T03:53:20.571Z,23.06
2019-02-21T03:55:55.358Z,23.03
2019-02-21T03:58:29.938Z,23.07
2019-02-21T04:01:04.177Z,23.09
2019-02-21T04:03:39.277Z,23.13
2019-02-21T04:06:13.215Z,23.05
2019-02-21T04:08:47.550Z,23.02
2019-02-21T04:11:21.892Z,23.05
2019-02-21T04:13:56.090Z,23.05
2019-02-21T04:16:30.369Z,23.09
2019-02-21T04:19:04.702Z,23.04
2019-02-21T04:21:38.925Z,23.05
2019-02-21T04:24:14.255Z,23.06
2019-02-21T04:26:48.366Z,23.01
2019-02-21T04:29:22.602Z,23.06
2019-02-21T04:31:56.914Z,23.01
2019-02-21T04:34:31.012Z,23.01
2019-02-21T04:37:05.410Z,22.97
2019-02-21T04:39:39.702Z,22.96
2019-02-21T04:42:13.791Z,23.03
2019-02-21T04:44:48.349Z,22.99
2019-02-21T04:47:22.533Z,22.97
2019-02-21T04:49:56.697Z,22.96
2019-02-21T04:52:31.159Z,22.96
2019-02-21T04:55:05.771Z,22.95
2019-02-21T04:57:40.142Z,22.95
2019-02-21T05:00:15.154Z,22.95
2019-02-21T05:02:49.625Z,22.98
2019-02-21T05:05:24.137Z,22.97
2019-02-21T05:07:58.207Z,23.07
2019-02-21T05:10:32.751Z,23.06
2019-02-21T05:13:07.116Z,22.98
2019-02-21T05:15:41.442Z,22.73
2019-02-21T05:18:16.067Z,22.60
2019-02-21T05:20:51.476Z,22.47
2019-02-21T05:23:26.086Z,22.42
2019-02-21T05:26:00.268Z,22.39
2019-02-21T05:28:35.012Z,22.35
2019-02-21T05:31:31.102Z,22.33
2019-02-21T05:34:13.745Z,22.35
2019-02-21T05:37:09.039Z,22.37
2019-02-21T05:40:03.098Z,22.38
2019-02-21T05:42:51.178Z,22.35
2019-02-21T05:45:32.448Z,22.35
2019-02-21T05:48:23.676Z,22.42
2019-02-21T05:51:29.342Z,22.34
2019-02-21T05:54:18.005Z,22.33
2019-02-21T05:57:13.829Z,22.36
2019-02-21T06:00:18.751Z,22.36
2019-02-21T06:03:10.050Z,22.41
2019-02-21T06:06:01.349Z,22.44
2019-02-21T06:09:00.624Z,22.46
2019-02-21T06:14:43.634Z,22.50
2019-02-21T06:17:36.314Z,22.56
2019-02-21T06:20:29.786Z,22.57
2019-02-21T06:23:34.670Z,22.61
2019-02-21T06:26:16.610Z,22.60
2019-02-21T06:29:04.561Z,22.61
2019-02-21T06:31:38.693Z,22.62
2019-02-21T06:34:49.120Z,22.62
2019-02-21T06:37:23.784Z,22.67
2019-02-21T06:39:58.533Z,22.65
2019-02-21T06:42:33.268Z,22.66
2019-02-21T06:45:08.307Z,22.65
2019-02-21T06:47:43.090Z,22.66
2019-02-21T06:50:26.422Z,22.66
2019-02-21T06:52:55.019Z,22.66
2019-02-21T06:55:30.406Z,22.62
2019-02-21T06:58:06.700Z,22.66
2019-02-21T07:00:42.027Z,22.67
2019-02-21T07:03:17.245Z,22.72
2019-02-21T07:05:52.581Z,22.74
2019-02-21T07:08:27.778Z,22.79
2019-02-21T07:11:06.493Z,22.77
2019-02-21T07:13:40.643Z,22.74
2019-02-21T07:16:17.298Z,22.78
2019-02-21T07:18:52.347Z,22.79
2019-02-21T07:21:28.940Z,22.79
2019-02-21T07:24:04.454Z,22.73
2019-02-21T07:26:39.664Z,22.70
2019-02-21T07:29:15.023Z,22.65
2019-02-21T07:31:50.198Z,22.67
2019-02-21T07:34:25.841Z,22.64
2019-02-21T07:37:02.009Z,22.76
2019-02-21T07:39:37.398Z,22.73
2019-02-21T07:42:13.594Z,22.76
2019-02-21T07:44:48.881Z,22.72
2019-02-21T07:47:24.510Z,22.71
2019-02-21T07:49:59.412Z,22.69
2019-02-21T07:52:34.966Z,22.67
2019-02-21T07:55:10.631Z,22.72
2019-02-21T07:57:47.087Z,22.69
2019-02-21T08:00:23.738Z,22.80
2019-02-21T08:02:58.763Z,22.83
2019-02-21T08:05:33.748Z,22.76
2019-02-21T08:08:10.930Z,22.75
2019-02-21T08:10:47.050Z,22.74
2019-02-21T08:13:22.398Z,22.77
2019-02-21T08:15:57.027Z,22.77
2019-02-21T08:18:32.366Z,22.85
2019-02-21T08:21:07.243Z,22.88
2019-02-21T08:23:50.053Z,22.83
2019-02-21T08:26:20.109Z,22.82
2019-02-21T08:28:55.558Z,22.82
2019-02-21T08:31:31.201Z,22.80
2019-02-21T08:34:09.683Z,22.81
2019-02-21T08:36:44.388Z,22.96
2019-02-21T08:39:18.758Z,23.10
2019-02-21T08:41:55.186Z,23.12
2019-02-21T08:44:29.879Z,23.06
2019-02-21T08:47:04.537Z,22.98
2019-02-21T08:49:39.022Z,23.00
2019-02-21T08:52:13.501Z,22.95
2019-02-21T08:54:59.624Z,23.00
2019-02-21T08:57:24.682Z,22.99
2019-02-21T08:59:59.417Z,23.06
2019-02-21T09:02:35.924Z,23.12
2019-02-21T09:05:10.577Z,23.07
2019-02-21T09:07:46.583Z,23.13
2019-02-21T09:10:21.347Z,23.17
2019-02-21T09:12:55.790Z,23.15
2019-02-21T09:15:30.455Z,23.12
2019-02-21T09:18:04.981Z,23.16
2019-02-21T09:20:39.896Z,23.11
2019-02-21T09:23:15.866Z,23.23
2019-02-21T09:25:50.662Z,23.16
2019-02-21T09:28:25.321Z,23.18
2019-02-21T09:31:00.061Z,23.12
2019-02-21T09:33:37.245Z,23.09
2019-02-21T09:36:12.082Z,23.11
2019-02-21T09:38:46.357Z,23.12
2019-02-21T09:41:20.747Z,23.09
2019-02-21T09:43:55.119Z,23.13
2019-02-21T09:46:29.422Z,23.22
2019-02-21T09:49:03.916Z,23.24
2019-02-21T09:51:38.189Z,23.22
2019-02-21T09:54:12.627Z,23.24
2019-02-21T09:56:52.798Z,23.29
2019-02-21T09:59:23.732Z,23.23
2019-02-21T10:01:57.899Z,23.31
2019-02-21T10:04:32.618Z,23.39
2019-02-21T10:07:07.163Z,23.30
2019-02-21T10:09:41.613Z,23.22
2019-02-21T10:12:15.923Z,23.18
2019-02-21T10:14:54.777Z,23.21
2019-02-21T10:17:29.097Z,23.26
2019-02-21T10:20:04.249Z,23.33
2019-02-21T10:22:38.432Z,23.31
2019-02-21T10:25:19.399Z,23.23
2019-02-21T10:27:53.635Z,23.27
2019-02-21T10:30:27.895Z,23.19
2019-02-21T10:33:02.346Z,23.21
2019-02-21T10:35:37.060Z,23.23
2019-02-21T10:38:11.448Z,23.25
2019-02-21T10:40:46.570Z,23.29
2019-02-21T10:43:20.954Z,23.28
2019-02-21T10:45:55.088Z,23.26
2019-02-21T10:48:29.477Z,23.21
2019-02-21T10:51:03.781Z,23.20
2019-02-21T10:53:37.903Z,23.22
2019-02-21T10:56:12.300Z,23.19
2019-02-21T10:58:46.428Z,23.20
2019-02-21T11:01:20.732Z,23.21
2019-02-21T11:03:55.031Z,23.24
2019-02-21T11:06:29.404Z,23.26
2019-02-21T11:09:04.143Z,23.27
2019-02-21T11:11:38.744Z,23.28
2019-02-21T11:14:13.171Z,23.28
2019-02-21T11:16:48.473Z,23.28
2019-02-21T11:19:22.819Z,23.29
2019-02-21T11:21:56.980Z,23.30
2019-02-21T11:24:31.250Z,23.29
2019-02-21T11:27:06.617Z,23.31
2019-02-21T11:29:40.909Z,23.32
2019-02-21T11:32:15.345Z,23.31
2019-02-21T11:34:49.797Z,23.34
2019-02-21T11:37:24.117Z,23.33
2019-02-21T11:39:58.372Z,23.33
2019-02-21T11:42:32.773Z,23.35
2019-02-21T11:45:07.493Z,23.38
2019-02-21T11:47:41.782Z,23.39
2019-02-21T11:50:18.235Z,23.39
2019-02-21T11:52:53.206Z,23.38
2019-02-21T11:55:27.735Z,23.38
2019-02-21T11:58:01.883Z,23.42
2019-02-21T12:00:36.469Z,23.43
2019-02-21T12:03:10.647Z,23.43
2019-02-21T12:05:44.973Z,23.44
2019-02-21T12:08:19.204Z,23.42
2019-02-21T12:10:53.470Z,23.45
2019-02-21T12:13:28.631Z,23.49
2019-02-21T12:16:04.501Z,23.47
2019-02-21T12:18:38.856Z,23.49
2019-02-21T12:21:13.318Z,23.54
2019-02-21T12:23:47.698Z,23.53
2019-02-21T12:26:21.957Z,23.54
2019-02-21T12:28:56.394Z,23.54
2019-02-21T12:31:30.615Z,23.57
2019-02-21T12:34:04.708Z,23.55
2019-02-21T12:36:39.263Z,23.62
2019-02-21T12:39:13.769Z,23.62
2019-02-21T12:41:48.166Z,23.58
2019-02-21T12:44:22.467Z,23.57
2019-02-21T12:46:56.677Z,23.62
2019-02-21T12:49:32.723Z,23.60
2019-02-21T12:52:08.206Z,23.58
2019-02-21T12:54:43.606Z,23.65
2019-02-21T12:57:18.318Z,23.63
2019-02-21T12:59:52.640Z,23.64
2019-02-21T13:02:28.070Z,23.66
2019-02-21T13:05:02.662Z,23.68
2019-02-21T13:07:36.846Z,23.69
2019-02-21T13:10:13.687Z,23.88
2019-02-21T13:12:48.097Z,24.14
2019-02-21T13:15:22.671Z,24.24
2019-02-21T13:17:57.250Z,24.31
2019-02-21T13:20:31.728Z,24.36
2019-02-21T13:23:06.167Z,24.38
2019-02-21T13:25:40.678Z,24.44
2019-02-21T13:28:14.998Z,24.45
2019-02-21T13:30:49.637Z,24.43
2019-02-21T13:33:24.146Z,24.49
2019-02-21T13:35:58.611Z,24.46
2019-02-21T13:38:33.274Z,24.49
2019-02-21T13:41:07.735Z,24.28
2019-02-21T13:43:42.083Z,24.08
2019-02-21T13:46:18.684Z,24.03
2019-02-21T13:49:01.307Z,24.00
2019-02-21T13:51:33.788Z,24.00
2019-02-21T13:54:08.060Z,24.12
2019-02-21T13:56:42.575Z,24.08
2019-02-21T13:59:16.588Z,24.08
2019-02-21T14:01:50.793Z,24.05
2019-02-21T14:04:25.189Z,24.03
2019-02-21T14:06:59.563Z,23.99
2019-02-21T14:09:33.831Z,24.03
2019-02-21T14:12:08.181Z,24.23
2019-02-21T14:14:42.668Z,24.38
2019-02-21T14:17:17.180Z,24.48
2019-02-21T14:19:53.057Z,24.50
2019-02-21T14:22:27.687Z,24.52
2019-02-21T14:25:02.044Z,24.54
2019-02-21T14:27:36.307Z,24.55
2019-02-21T14:30:12.227Z,24.56
2019-02-21T14:32:46.622Z,24.57
2019-02-21T14:35:21.036Z,24.56
2019-02-21T14:37:55.322Z,24.56
2019-02-21T14:40:29.598Z,24.57
2019-02-21T14:43:03.851Z,24.58
2019-02-21T14:45:38.160Z,24.58
2019-02-21T14:48:12.510Z,24.59
2019-02-21T14:50:47.337Z,24.57
2019-02-21T14:53:22.590Z,24.57
2019-02-21T14:55:57.077Z,24.59
2019-02-21T14:58:31.261Z,24.59
2019-02-21T15:01:06.541Z,24.59
2019-02-21T15:03:40.701Z,24.59
2019-02-21T15:06:26.526Z,24.59
2019-02-21T15:08:51.517Z,24.59
2019-02-21T15:11:25.819Z,24.59
2019-02-21T15:13:59.931Z,24.59
2019-02-21T15:16:34.303Z,24.58
2019-02-21T15:19:08.596Z,24.57
2019-02-21T15:21:43.503Z,24.59
2019-02-21T15:24:18.013Z,24.64
2019-02-21T15:26:52.182Z,24.65
2019-02-21T15:29:26.525Z,24.67
2019-02-21T15:32:10.633Z,24.63
2019-02-21T15:34:37.316Z,24.60
2019-02-21T15:37:11.369Z,24.61
2019-02-21T15:39:45.721Z,24.66
2019-02-21T15:42:20.237Z,24.62
2019-02-21T15:44:54.543Z,24.32
2019-02-21T15:47:28.912Z,24.20
2019-02-21T15:50:03.167Z,24.22
2019-02-21T15:52:37.780Z,24.21
2019-02-21T15:55:13.302Z,24.23
2019-02-21T15:57:48.139Z,24.25
2019-02-21T16:00:22.826Z,24.25
2019-02-21T16:02:57.046Z,24.24
2019-02-21T16:05:31.304Z,24.24
2019-02-21T16:08:05.478Z,24.26
2019-02-21T16:10:40.020Z,24.26
2019-02-21T16:13:14.804Z,24.25
2019-02-21T16:15:49.600Z,24.30
2019-02-21T16:18:23.538Z,24.29
2019-02-21T16:20:57.841Z,24.26
2019-02-21T16:23:32.038Z,24.25
2019-02-21T16:26:06.140Z,24.32
2019-02-21T16:28:40.455Z,24.30
2019-02-21T16:31:14.915Z,24.31
2019-02-21T16:33:49.418Z,24.34
2019-02-21T16:36:23.710Z,24.33
2019-02-21T16:38:58.249Z,24.31
2019-02-21T16:41:36.369Z,24.33
2019-02-21T16:44:08.396Z,24.35
2019-02-21T16:46:42.938Z,24.37
2019-02-21T16:49:17.107Z,24.36
2019-02-21T16:51:51.419Z,24.30
2019-02-21T16:54:25.938Z,24.35
2019-02-21T16:57:00.271Z,24.33
2019-02-21T16:59:34.637Z,24.35
2019-02-21T17:02:08.955Z,24.37
2019-02-21T17:04:43.374Z,24.35
2019-02-21T17:07:20.230Z,24.41
2019-02-21T17:09:53.667Z,24.37
2019-02-21T17:12:27.909Z,24.39
2019-02-21T17:15:02.567Z,24.40
2019-02-21T17:17:38.185Z,24.42
2019-02-21T17:20:13.990Z,24.41
2019-02-21T17:22:48.471Z,24.46
2019-02-21T17:25:22.884Z,24.47
2019-02-21T17:27:57.415Z,24.46
2019-02-21T17:30:31.684Z,24.49
2019-02-21T17:33:05.973Z,24.52
2019-02-21T17:35:40.157Z,24.49
2019-02-21T17:38:14.680Z,24.52
2019-02-21T17:40:49.166Z,24.53
2019-02-21T17:43:24.490Z,24.52
2019-02-21T17:45:58.731Z,24.52
2019-02-21T17:48:32.967Z,24.52
2019-02-21T17:51:07.353Z,24.49
2019-02-21T17:53:41.440Z,24.54
2019-02-21T17:56:15.756Z,24.56
2019-02-21T17:58:50.330Z,24.55
2019-02-21T18:01:25.573Z,24.52
2019-02-21T18:04:00.595Z,24.52
2019-02-21T18:06:34.783Z,24.54
2019-02-21T18:09:09.494Z,24.57
2019-02-21T18:11:44.470Z,24.59
2019-02-21T18:14:18.778Z,24.64
2019-02-21T18:16:53.170Z,24.64
2019-02-21T18:19:27.818Z,24.61
2019-02-21T18:22:01.912Z,24.65
2019-02-21T18:24:36.385Z,24.66
2019-02-21T18:27:10.641Z,24.64
2019-02-21T18:29:45.072Z,24.62
2019-02-21T18:32:20.462Z,24.67
2019-02-21T18:34:54.932Z,24.59
2019-02-21T18:37:29.457Z,24.56
2019-02-21T18:40:03.929Z,24.56
2019-02-21T18:42:38.532Z,24.58
2019-02-21T18:45:12.879Z,24.55
2019-02-21T18:47:47.424Z,24.55
2019-02-21T18:50:21.703Z,24.55
2019-02-21T18:52:56.051Z,24.54
2019-02-21T18:55:30.272Z,24.57
2019-02-21T18:58:04.845Z,24.56
2019-02-21T19:00:39.166Z,24.55
2019-02-21T19:03:13.521Z,24.27
2019-02-21T19:05:47.970Z,24.11
2019-02-21T19:08:22.868Z,24.08
2019-02-21T19:10:58.219Z,24.06
2019-02-21T19:13:32.533Z,24.05
2019-02-21T19:16:08.113Z,24.05
2019-02-21T19:18:42.582Z,24.03
2019-02-21T19:21:17.042Z,24.03
2019-02-21T19:23:51.197Z,24.03
2019-02-21T19:26:25.669Z,24.01
2019-02-21T19:29:00.042Z,24.00
2019-02-21T19:31:34.635Z,24.00
2019-02-21T19:34:09.981Z,23.99
2019-02-21T19:36:44.266Z,23.99
2019-02-21T19:39:18.797Z,23.98
2019-02-21T19:41:52.957Z,23.98
2019-02-21T19:44:27.354Z,23.98
2019-02-21T19:47:01.574Z,23.98
2019-02-21T19:49:35.882Z,23.98
2019-02-21T19:52:10.170Z,23.97
2019-02-21T19:54:44.639Z,23.97
2019-02-21T19:57:18.994Z,23.97
2019-02-21T19:59:53.435Z,23.95
2019-02-21T20:02:27.925Z,23.95
2019-02-21T20:05:02.401Z,23.93
2019-02-21T20:07:36.500Z,23.94
2019-02-21T20:10:10.909Z,23.92
2019-02-21T20:12:45.323Z,23.93
2019-02-21T20:15:19.759Z,23.93
2019-02-21T20:17:54.130Z,23.91
2019-02-21T20:20:28.449Z,23.91
2019-02-21T20:23:02.748Z,23.91
2019-02-21T20:25:37.180Z,23.90
2019-02-21T20:28:11.668Z,23.90
2019-02-21T20:30:45.958Z,23.90
2019-02-21T20:33:20.471Z,23.90
2019-02-21T20:35:54.548Z,23.90
2019-02-21T20:38:32.174Z,23.89
2019-02-21T20:41:05.289Z,23.89
2019-02-21T20:43:39.777Z,23.88
2019-02-21T20:46:14.239Z,23.88
2019-02-21T20:48:48.679Z,23.88
2019-02-21T20:51:22.883Z,23.87
2019-02-21T20:53:57.466Z,23.88
2019-02-21T20:56:32.768Z,23.87
2019-02-21T20:59:08.034Z,23.88
2019-02-21T21:01:42.229Z,23.87
2019-02-21T21:04:16.456Z,23.87
2019-02-21T21:06:50.844Z,23.88
2019-02-21T21:09:25.281Z,23.89
2019-02-21T21:11:59.700Z,23.87
2019-02-21T21:14:33.981Z,23.87
2019-02-21T21:17:08.288Z,23.86
2019-02-21T21:19:42.901Z,23.88
2019-02-21T21:22:17.176Z,23.88
2019-02-21T21:24:51.279Z,23.89
2019-02-21T21:27:25.606Z,23.88
2019-02-21T21:29:59.977Z,23.90
2019-02-21T21:32:34.391Z,23.91
2019-02-21T21:35:09.037Z,23.93
2019-02-21T21:37:44.530Z,23.91
2019-02-21T21:40:18.908Z,23.88
2019-02-21T21:42:53.303Z,23.87
2019-02-21T21:45:27.916Z,23.87
2019-02-21T21:48:02.005Z,23.86
2019-02-21T21:50:36.442Z,23.86
2019-02-21T21:53:11.817Z,23.87
2019-02-21T21:55:45.880Z,23.86
2019-02-21T21:58:20.093Z,23.83
2019-02-21T22:00:54.227Z,23.85
2019-02-21T22:03:28.609Z,23.85
2019-02-21T22:06:02.801Z,23.86
2019-02-21T22:08:36.972Z,23.85
2019-02-21T22:11:11.140Z,23.85
2019-02-21T22:13:45.354Z,23.86
2019-02-21T22:16:19.405Z,23.86
2019-02-21T22:18:53.669Z,23.86
2019-02-21T22:21:28.711Z,23.85
2019-02-21T22:24:03.128Z,23.84
2019-02-21T22:26:37.422Z,23.83
2019-02-21T22:29:11.728Z,23.84
2019-02-21T22:31:45.922Z,23.82
2019-02-21T22:34:20.179Z,23.83
2019-02-21T22:36:54.339Z,23.81
2019-02-21T22:39:28.416Z,23.80
2019-02-21T22:42:02.550Z,23.79
2019-02-21T22:44:36.593Z,23.81
2019-02-21T22:47:10.875Z,23.81
2019-02-21T22:49:45.211Z,23.80
2019-02-21T22:52:19.315Z,23.80
2019-02-21T22:54:54.548Z,23.81
2019-02-21T22:57:28.657Z,23.80
2019-02-21T23:00:02.857Z,23.81
2019-02-21T23:02:39.131Z,23.80
2019-02-21T23:05:42.533Z,23.80
2019-02-21T23:09:10.174Z,23.79
2019-02-21T23:11:44.728Z,23.79
2019-02-21T23:14:19.541Z,23.79
2019-02-21T23:16:54.039Z,23.77
2019-02-21T23:19:27.982Z,23.78
2019-02-21T23:22:02.308Z,23.78
2019-02-21T23:24:36.862Z,23.76
2019-02-21T23:27:11.072Z,23.78
2019-02-21T23:29:46.421Z,23.78
2019-02-21T23:32:20.728Z,23.76
2019-02-21T23:34:56.376Z,23.78
2019-02-21T23:37:30.739Z,23.78
2019-02-21T23:40:05.190Z,23.78
2019-02-21T23:42:39.819Z,23.75
2019-02-21T23:45:15.267Z,23.73
2019-02-21T23:47:50.160Z,23.72
2019-02-21T23:50:24.772Z,23.72
2019-02-21T23:52:59.005Z,23.71
2019-02-21T23:55:33.336Z,23.72
2019-02-21T23:58:07.851Z,23.72
